Time;durP1;ratioP1;P1;durP2;ratioP2;P2;SDS_P1;SDS_P2;PMS_P1;PMS_P2;Temp;Humidity;BMP_temperature;BMP_pressure;BME280_temperature;BME280_humidity;BME280_pressure;Samples;Min_cycle;Max_cycle;Signal;HPM_P1;HPM_P2
2021/07/25 00:01:51;;;;;;;;;8.67;8.00;;;;;23.69;55.07;98204.78;4860980;28;102508;-84
2021/07/25 00:04:19;;;;;;;;;10.00;10.00;;;;;23.69;55.17;98209.47;4868383;28;102422;-83
2021/07/25 00:06:46;;;;;;;;;9.67;9.00;;;;;23.69;54.81;98209.47;4871300;28;104277;-83
2021/07/25 00:09:15;;;;;;;;;7.00;5.67;;;;;23.68;54.93;98213.38;4864129;28;102660;-83
2021/07/25 00:11:51;;;;;;;;;10.00;8.00;;;;;23.67;54.70;98211.75;4882944;28;103509;-83
2021/07/25 00:14:25;;;;;;;;;9.00;8.00;;;;;23.67;55.27;98211.75;4878294;28;102739;-83
2021/07/25 00:17:01;;;;;;;;;11.33;9.33;;;;;23.66;54.97;98205.38;4882028;28;103626;-83
2021/07/25 00:19:37;;;;;;;;;8.00;7.67;;;;;23.66;54.94;98205.38;4884628;28;102139;-83
2021/07/25 00:22:11;;;;;;;;;9.00;8.00;;;;;23.67;55.14;98200.69;4876163;28;102168;-84
2021/07/25 00:24:50;;;;;;;;;10.00;9.00;;;;;23.65;54.63;98197.41;4879691;28;103085;-84
2021/07/25 00:27:28;;;;;;;;;6.67;6.67;;;;;23.64;54.86;98202.09;4822655;28;108382;-83
2021/07/25 00:30:03;;;;;;;;;9.00;8.67;;;;;23.63;54.77;98199.66;4887149;28;102312;-83
2021/07/25 00:32:38;;;;;;;;;10.00;8.67;;;;;23.64;54.89;98198.53;4876949;28;102479;-83
2021/07/25 00:35:19;;;;;;;;;9.00;9.00;;;;;23.63;54.77;98200.47;4883830;28;104033;-83
2021/07/25 00:37:54;;;;;;;;;8.33;8.33;;;;;23.62;54.58;98198.81;4812403;28;110924;-83
2021/07/25 00:40:39;;;;;;;;;8.00;8.00;;;;;23.62;54.88;98198.81;4874285;28;103769;-84
2021/07/25 00:43:25;;;;;;;;;9.67;8.67;;;;;23.62;54.83;98187.78;4866330;28;103510;-83
2021/07/25 00:45:57;;;;;;;;;8.67;8.67;;;;;23.62;54.74;98186.94;4823197;28;103251;-84
2021/07/25 00:48:25;;;;;;;;;6.33;6.33;;;;;23.59;54.55;98182.84;4871572;28;104370;-83
2021/07/25 00:50:56;;;;;;;;;10.00;10.00;;;;;23.59;54.53;98171.81;4894773;28;102501;-84
2021/07/25 00:53:23;;;;;;;;;8.67;8.67;;;;;23.59;54.74;98166.28;4878599;28;102495;-84
2021/07/25 00:55:51;;;;;;;;;8.33;7.67;;;;;23.58;54.69;98167.41;4884176;28;102300;-82
2021/07/25 00:58:18;;;;;;;;;12.00;9.33;;;;;23.58;54.66;98170.16;4852806;28;104597;-83
2021/07/25 01:00:45;;;;;;;;;9.67;9.33;;;;;23.58;54.58;98167.41;4893390;28;102434;-82
2021/07/25 01:03:41;;;;;;;;;11.00;10.33;;;;;23.56;54.41;98164.94;4828480;28;104880;-83
2021/07/25 01:06:33;;;;;;;;;10.00;9.00;;;;;23.55;54.75;98160.53;4788987;28;105024;-82
2021/07/25 01:09:02;;;;;;;;;12.67;11.33;;;;;23.55;54.56;98171.56;4788076;28;108793;-82
2021/07/25 01:11:49;;;;;;;;;8.67;8.67;;;;;23.54;54.66;98163.59;4857078;28;102413;-83
2021/07/25 01:14:34;;;;;;;;;10.67;9.67;;;;;23.54;54.70;98160.84;4872497;28;102540;-82
2021/07/25 01:17:31;;;;;;;;;11.33;9.00;;;;;23.54;54.82;98158.06;4832390;28;102542;-83
2021/07/25 01:20:12;;;;;;;;;9.67;8.67;;;;;23.54;54.56;98158.06;4826134;28;108949;-83
2021/07/25 01:22:49;;;;;;;;;9.00;9.00;;;;;23.54;54.73;98153.38;4886859;28;102641;-82
2021/07/25 01:25:25;;;;;;;;;15.33;12.00;;;;;23.54;54.57;98147.03;4861597;28;102155;-83
2021/07/25 01:28:09;;;;;;;;;9.33;9.00;;;;;23.52;54.50;98150.09;4879592;28;102593;-82
2021/07/25 01:30:58;;;;;;;;;11.00;10.33;;;;;23.51;54.45;98145.66;4882699;28;103677;-82
2021/07/25 01:33:36;;;;;;;;;11.67;11.00;;;;;23.51;54.48;98147.59;4789931;28;102652;-82
2021/07/25 01:36:12;;;;;;;;;12.67;11.00;;;;;23.50;54.74;98151.50;4875069;28;102503;-82
2021/07/25 01:38:48;;;;;;;;;11.00;10.00;;;;;23.50;54.47;98157.03;4853216;28;103727;-82
2021/07/25 01:41:24;;;;;;;;;8.67;8.67;;;;;23.49;54.33;98147.94;4840332;28;108375;-82
2021/07/25 01:43:58;;;;;;;;;9.33;9.00;;;;;23.48;54.37;98145.44;4834456;28;102960;-83
2021/07/25 01:46:33;;;;;;;;;10.00;10.00;;;;;23.47;54.56;98147.38;4862933;28;102603;-82
2021/07/25 01:49:10;;;;;;;;;12.67;11.67;;;;;23.48;54.30;98150.97;4856310;28;104899;-82
2021/07/25 01:51:45;;;;;;;;;11.67;10.00;;;;;23.47;54.65;98143.78;4865775;28;103272;-83
2021/07/25 01:54:17;;;;;;;;;10.33;10.00;;;;;23.46;54.39;98145.72;4872071;28;102490;-84
2021/07/25 01:56:44;;;;;;;;;11.33;10.00;;;;;23.45;54.64;98146.88;4862709;28;103019;-83
2021/07/25 01:59:11;;;;;;;;;12.00;10.33;;;;;23.45;54.53;98143.28;4875188;28;102850;-83
2021/07/25 02:01:38;;;;;;;;;11.00;11.00;;;;;23.44;54.44;98148.00;4867476;28;104115;-84
2021/07/25 02:04:06;;;;;;;;;11.00;10.00;;;;;23.42;54.24;98132.78;4861879;28;102295;-83
2021/07/25 02:06:35;;;;;;;;;12.33;12.33;;;;;23.44;54.40;98149.91;4870580;28;103639;-83
2021/07/25 02:09:02;;;;;;;;;9.33;9.00;;;;;23.42;54.23;98144.66;4878036;28;104351;-84
2021/07/25 02:11:29;;;;;;;;;13.00;11.00;;;;;23.42;54.36;98152.09;4869372;28;104268;-83
2021/07/25 02:13:56;;;;;;;;;16.33;14.00;;;;;23.42;54.35;98143.84;4866592;28;102763;-84
2021/07/25 02:16:24;;;;;;;;;11.00;10.00;;;;;23.41;54.26;98164.28;4868592;28;102549;-84
2021/07/25 02:18:51;;;;;;;;;9.33;9.33;;;;;23.41;54.11;98158.78;4876184;28;102561;-84
2021/07/25 02:21:18;;;;;;;;;12.67;11.67;;;;;23.40;53.96;98146.91;4882759;28;111383;-84
2021/07/25 02:23:45;;;;;;;;;11.00;9.67;;;;;23.39;54.13;98149.94;4873045;28;102427;-84
2021/07/25 02:26:12;;;;;;;;;12.00;11.00;;;;;23.39;54.16;98147.19;4871258;28;102431;-84
2021/07/25 02:28:39;;;;;;;;;12.67;10.33;;;;;23.39;54.13;98138.91;4885721;28;102889;-84
2021/07/25 02:31:07;;;;;;;;;10.33;10.33;;;;;23.39;54.21;98141.66;4873984;28;104169;-84
2021/07/25 02:33:34;;;;;;;;;13.33;11.67;;;;;23.38;54.16;98153.81;4886761;28;103965;-84
2021/07/25 02:36:01;;;;;;;;;10.00;9.00;;;;;23.36;54.21;98143.09;4896130;28;102401;-84
2021/07/25 02:38:28;;;;;;;;;12.67;11.67;;;;;23.35;54.10;98137.84;4887835;28;103059;-84
2021/07/25 02:40:55;;;;;;;;;10.00;10.00;;;;;23.34;54.16;98136.22;4902957;28;104245;-84
2021/07/25 02:43:22;;;;;;;;;12.00;9.33;;;;;23.34;54.02;98141.72;4904122;28;105981;-84
2021/07/25 02:45:50;;;;;;;;;12.00;11.00;;;;;23.32;54.07;98144.81;4883475;28;102402;-84
2021/07/25 02:48:17;;;;;;;;;11.00;10.33;;;;;23.32;54.18;98141.22;4904240;28;102245;-84
2021/07/25 02:50:44;;;;;;;;;12.00;11.00;;;;;23.33;54.06;98138.16;4884898;28;104427;-83
2021/07/25 02:53:11;;;;;;;;;9.00;9.00;;;;;23.34;54.11;98144.50;4882443;28;102501;-83
2021/07/25 02:55:38;;;;;;;;;10.33;10.33;;;;;23.33;54.14;98140.91;4894596;28;104056;-82
2021/07/25 02:58:05;;;;;;;;;12.00;12.00;;;;;23.32;54.00;98143.97;4892129;28;103856;-82
2021/07/25 03:00:32;;;;;;;;;11.33;11.33;;;;;23.33;54.22;98142.84;4891956;28;104349;-83
2021/07/25 03:03:00;;;;;;;;;13.67;13.00;;;;;23.32;53.96;98138.47;4891374;28;102486;-83
2021/07/25 03:05:27;;;;;;;;;10.00;9.67;;;;;23.32;54.01;98138.47;4881450;28;105148;-82
2021/07/25 03:07:54;;;;;;;;;12.00;11.00;;;;;23.32;53.93;98143.97;4868246;28;102747;-83
2021/07/25 03:10:22;;;;;;;;;9.00;9.00;;;;;23.32;53.81;98141.22;4915984;28;104092;-82
2021/07/25 03:12:49;;;;;;;;;10.00;9.67;;;;;23.31;54.02;98145.09;4896232;28;102467;-82
2021/07/25 03:15:16;;;;;;;;;12.00;11.00;;;;;23.31;53.88;98145.09;4878613;28;102906;-82
2021/07/25 03:17:43;;;;;;;;;10.67;10.00;;;;;23.30;53.85;98146.19;4894267;28;102579;-82
2021/07/25 03:20:11;;;;;;;;;12.00;10.67;;;;;23.29;53.94;98145.38;4886700;28;104248;-81
2021/07/25 03:22:38;;;;;;;;;11.33;10.33;;;;;23.28;53.81;98152.00;4884206;28;103655;-83
2021/07/25 03:25:06;;;;;;;;;11.67;11.00;;;;;23.29;53.86;98163.84;4890235;28;102622;-82
2021/07/25 03:28:01;;;;;;;;;11.00;11.00;;;;;23.28;53.65;98151.19;4876324;28;102180;-82
2021/07/25 03:30:28;;;;;;;;;11.67;11.67;;;;;23.27;53.67;98152.31;4872187;28;109229;-83
2021/07/25 03:32:55;;;;;;;;;12.33;10.67;;;;;23.25;53.79;98151.78;4890535;28;109646;-83
2021/07/25 03:35:22;;;;;;;;;11.67;11.67;;;;;23.28;53.87;98153.97;4873921;28;104489;-82
2021/07/25 03:37:49;;;;;;;;;10.00;9.00;;;;;23.28;53.71;98159.47;4877246;28;103878;-82
2021/07/25 03:40:16;;;;;;;;;12.67;11.33;;;;;23.26;53.67;98156.19;4906752;28;104895;-82
2021/07/25 03:42:44;;;;;;;;;13.33;12.33;;;;;23.28;53.57;98153.97;4867846;28;103102;-82
2021/07/25 03:45:11;;;;;;;;;13.00;12.33;;;;;23.27;53.70;98149.56;4886322;28;102154;-83
2021/07/25 03:47:38;;;;;;;;;11.33;10.33;;;;;23.25;53.42;98149.00;4875113;28;103894;-82
2021/07/25 03:50:06;;;;;;;;;14.00;10.33;;;;;23.25;53.64;98146.25;4875678;28;104743;-83
2021/07/25 03:52:37;;;;;;;;;12.00;11.33;;;;;23.23;53.77;98148.50;4893330;28;102565;-82
2021/07/25 03:55:04;;;;;;;;;13.00;12.67;;;;;23.25;53.73;98143.50;4897407;28;102583;-84
2021/07/25 03:57:32;;;;;;;;;13.00;12.00;;;;;23.25;53.68;98152.59;4879693;28;102417;-84
2021/07/25 04:00:00;;;;;;;;;10.00;10.00;;;;;23.24;53.72;98156.47;4869354;28;104136;-83
2021/07/25 04:02:27;;;;;;;;;14.00;11.67;;;;;23.25;53.60;98154.53;4887981;28;102110;-84
2021/07/25 04:04:55;;;;;;;;;10.00;10.00;;;;;23.25;53.56;98165.56;4890744;28;104230;-84
2021/07/25 04:07:22;;;;;;;;;14.00;11.67;;;;;23.24;53.62;98150.94;4904633;28;102612;-83
2021/07/25 04:09:50;;;;;;;;;12.00;11.67;;;;;23.23;53.60;98149.31;4901027;28;104053;-84
2021/07/25 04:12:17;;;;;;;;;10.33;10.33;;;;;23.23;53.46;98157.59;4892260;28;102320;-84
2021/07/25 04:14:45;;;;;;;;;11.33;10.67;;;;;23.24;53.73;98159.22;4890477;28;102406;-84
2021/07/25 04:17:12;;;;;;;;;12.00;12.00;;;;;23.23;53.62;98162.28;4890320;28;102737;-83
2021/07/25 04:19:40;;;;;;;;;12.33;12.00;;;;;23.23;53.53;98163.13;4881151;28;104159;-83
2021/07/25 04:22:07;;;;;;;;;14.33;12.00;;;;;23.21;53.37;98162.56;4903472;28;102196;-83
2021/07/25 04:24:34;;;;;;;;;11.00;10.00;;;;;23.22;53.48;98166.16;4883241;28;104225;-83
2021/07/25 04:27:01;;;;;;;;;12.67;11.00;;;;;23.23;53.52;98162.28;4880537;28;103547;-83
2021/07/25 04:29:29;;;;;;;;;12.00;12.00;;;;;23.22;53.23;98161.47;4888493;28;104286;-83
2021/07/25 04:31:56;;;;;;;;;11.00;11.00;;;;;23.22;53.37;98167.00;4900364;28;102057;-84
2021/07/25 04:34:24;;;;;;;;;11.00;11.00;;;;;23.21;53.21;98159.81;4878208;28;103075;-83
2021/07/25 04:36:52;;;;;;;;;12.67;11.00;;;;;23.21;53.29;98159.00;4906213;28;102253;-83
2021/07/25 04:39:19;;;;;;;;;10.33;10.00;;;;;23.20;53.39;98166.44;4882262;28;103921;-84
2021/07/25 04:41:51;;;;;;;;;12.67;11.67;;;;;23.21;53.28;98153.47;4892489;28;103623;-84
2021/07/25 04:44:29;;;;;;;;;9.67;9.67;;;;;23.22;53.16;98155.13;4890034;28;102417;-84
2021/07/25 04:47:02;;;;;;;;;14.00;10.00;;;;;23.21;53.29;98148.78;4866533;28;102888;-84
2021/07/25 04:49:37;;;;;;;;;12.00;11.33;;;;;23.21;53.25;98148.78;4864692;28;108974;-84
2021/07/25 04:52:04;;;;;;;;;13.00;12.33;;;;;23.21;53.30;98156.22;4887312;28;104627;-83
2021/07/25 04:54:34;;;;;;;;;12.00;11.00;;;;;23.21;53.35;98147.97;4865524;28;102839;-83
2021/07/25 04:57:04;;;;;;;;;11.67;10.00;;;;;23.21;53.42;98153.47;4867357;28;104299;-83
2021/07/25 04:59:48;;;;;;;;;10.33;9.67;;;;;23.22;53.50;98149.63;4887001;28;104975;-84
2021/07/25 05:02:16;;;;;;;;;10.67;9.67;;;;;23.22;53.30;98147.69;4862346;28;102827;-84
2021/07/25 05:04:45;;;;;;;;;9.00;9.00;;;;;23.22;53.34;98147.69;4873778;28;102508;-84
2021/07/25 05:07:13;;;;;;;;;9.33;9.33;;;;;23.23;53.44;98140.22;4876041;28;102555;-84
2021/07/25 05:09:41;;;;;;;;;11.00;11.00;;;;;23.23;53.28;98137.47;4890387;28;104183;-83
2021/07/25 05:12:22;;;;;;;;;10.67;10.67;;;;;23.23;53.58;98140.22;4876601;28;103953;-84
2021/07/25 05:15:10;;;;;;;;;9.67;9.33;;;;;23.23;53.64;98143.81;4880998;28;102268;-84
2021/07/25 05:17:59;;;;;;;;;12.00;12.00;;;;;23.23;53.84;98140.22;4829526;28;102670;-84
2021/07/25 05:20:39;;;;;;;;;7.00;6.33;;;;;23.24;53.72;98152.88;4862779;28;110384;-84
2021/07/25 05:23:19;;;;;;;;;11.00;10.33;;;;;23.24;53.81;98147.38;4824128;28;103298;-84
2021/07/25 05:25:51;;;;;;;;;11.67;11.00;;;;;23.26;53.45;98151.50;4887675;28;111287;-84
2021/07/25 05:28:19;;;;;;;;;10.00;9.67;;;;;23.27;53.84;98152.31;4881528;28;104156;-84
2021/07/25 05:30:54;;;;;;;;;10.67;10.33;;;;;23.28;53.95;98156.72;4891234;28;104048;-84
2021/07/25 05:33:22;;;;;;;;;11.00;10.67;;;;;23.28;53.54;98153.97;4889929;28;103999;-84
2021/07/25 05:35:49;;;;;;;;;12.00;11.33;;;;;23.29;53.89;98161.94;4881585;28;103835;-84
2021/07/25 05:38:17;;;;;;;;;12.33;11.00;;;;;23.29;53.61;98155.59;4892360;28;102678;-83
2021/07/25 05:40:44;;;;;;;;;11.67;10.67;;;;;23.28;53.43;98154.75;4883735;28;104273;-83
2021/07/25 05:43:11;;;;;;;;;12.00;11.67;;;;;23.30;53.60;98152.53;4873401;28;102726;-84
2021/07/25 05:45:38;;;;;;;;;11.00;11.00;;;;;23.32;53.52;98160.53;4896782;28;102656;-84
2021/07/25 05:48:06;;;;;;;;;8.67;8.67;;;;;23.33;53.48;98156.63;4883775;28;102424;-84
2021/07/25 05:50:33;;;;;;;;;10.00;8.67;;;;;23.34;53.19;98169.31;4885443;28;104111;-84
2021/07/25 05:53:01;;;;;;;;;12.67;11.00;;;;;23.34;53.22;98164.63;4896580;28;102576;-84
2021/07/25 05:55:30;;;;;;;;;11.33;9.67;;;;;23.35;53.14;98165.44;4880333;28;102590;-84
2021/07/25 05:57:57;;;;;;;;;9.33;8.33;;;;;23.36;53.32;98178.13;4891149;28;102718;-83
2021/07/25 06:00:24;;;;;;;;;9.67;9.67;;;;;23.36;53.41;98172.63;4881592;28;104101;-83
2021/07/25 06:02:58;;;;;;;;;8.33;8.33;;;;;23.36;53.40;98181.72;4859769;28;103900;-83
2021/07/25 06:05:35;;;;;;;;;10.00;8.67;;;;;23.38;53.56;98181.41;4878787;28;102259;-83
2021/07/25 06:08:04;;;;;;;;;12.33;10.33;;;;;23.38;53.55;98181.41;4885263;28;104511;-83
2021/07/25 06:10:32;;;;;;;;;9.67;8.67;;;;;23.38;53.38;98176.72;4867089;28;108940;-83
2021/07/25 06:13:00;;;;;;;;;10.00;10.00;;;;;23.38;53.48;98175.88;4873124;28;102396;-83
2021/07/25 06:15:28;;;;;;;;;9.00;9.00;;;;;23.39;53.70;98183.06;4883061;28;103021;-83
2021/07/25 06:17:55;;;;;;;;;10.00;10.00;;;;;23.40;53.60;98179.19;4886778;28;103160;-83
2021/07/25 06:20:23;;;;;;;;;8.00;7.67;;;;;23.39;53.42;98183.06;4886532;28;104249;-83
2021/07/25 06:22:52;;;;;;;;;9.33;8.67;;;;;23.40;53.58;98173.66;4880942;28;102608;-83
2021/07/25 06:25:21;;;;;;;;;7.33;6.67;;;;;23.41;53.61;98180.84;4867535;28;107397;-84
2021/07/25 06:27:52;;;;;;;;;9.00;9.00;;;;;23.42;53.76;98171.41;4887546;28;102903;-83
2021/07/25 06:30:21;;;;;;;;;9.67;9.33;;;;;23.40;53.67;98180.03;4867803;28;104104;-83
2021/07/25 06:33:07;;;;;;;;;9.00;9.00;;;;;23.42;53.57;98179.69;4876403;28;103433;-83
2021/07/25 06:35:36;;;;;;;;;10.67;9.00;;;;;23.43;54.06;98173.91;4873480;28;102502;-84
2021/07/25 06:38:07;;;;;;;;;9.00;8.33;;;;;23.43;53.65;98178.59;4890073;28;102518;-83
2021/07/25 06:40:35;;;;;;;;;8.67;8.00;;;;;23.43;53.71;98173.91;4877479;28;108928;-83
2021/07/25 06:43:04;;;;;;;;;10.67;9.67;;;;;23.44;53.69;98172.81;4890512;28;102581;-83
2021/07/25 06:45:32;;;;;;;;;11.00;9.33;;;;;23.43;53.64;98167.56;4887053;28;102810;-83
2021/07/25 06:47:59;;;;;;;;;8.67;8.67;;;;;23.44;53.73;98178.34;4886167;28;102538;-83
2021/07/25 06:50:28;;;;;;;;;9.00;8.00;;;;;23.46;53.63;98178.84;4875188;28;104224;-83
2021/07/25 06:52:56;;;;;;;;;9.67;8.67;;;;;23.47;53.62;98182.44;4883747;28;104724;-83
2021/07/25 06:55:25;;;;;;;;;11.67;10.67;;;;;23.47;53.59;98183.25;4876374;28;102414;-83
2021/07/25 06:57:52;;;;;;;;;9.67;9.67;;;;;23.47;53.65;98169.47;4885660;28;102953;-83
2021/07/25 07:00:19;;;;;;;;;10.33;9.33;;;;;23.48;53.78;98181.31;4891519;28;104049;-83
2021/07/25 07:02:50;;;;;;;;;8.00;7.33;;;;;23.48;53.76;98178.56;4877903;28;102593;-83
2021/07/25 07:05:21;;;;;;;;;7.00;7.00;;;;;23.50;53.71;98184.63;4876655;28;103336;-83
2021/07/25 07:07:49;;;;;;;;;7.67;7.67;;;;;23.50;53.69;98184.63;4877168;28;105105;-83
2021/07/25 07:10:19;;;;;;;;;12.00;9.67;;;;;23.51;53.51;98180.72;4884310;28;103989;-83
2021/07/25 07:12:47;;;;;;;;;9.00;8.33;;;;;23.51;53.51;98186.25;4880010;28;102875;-83
2021/07/25 07:15:15;;;;;;;;;9.00;9.00;;;;;23.53;53.44;98184.03;4881771;28;103444;-83
2021/07/25 07:17:42;;;;;;;;;10.00;8.67;;;;;23.52;53.40;98174.09;4893324;28;102757;-83
2021/07/25 07:20:13;;;;;;;;;10.67;10.00;;;;;23.53;53.50;98181.28;4882634;28;104142;-83
2021/07/25 07:22:42;;;;;;;;;8.00;8.00;;;;;23.54;53.50;98180.16;4890166;28;102652;-83
2021/07/25 07:25:10;;;;;;;;;12.00;11.00;;;;;23.54;53.56;98185.69;4884968;28;102289;-83
2021/07/25 07:27:37;;;;;;;;;8.33;8.33;;;;;23.54;53.35;98180.97;4896454;28;102883;-83
2021/07/25 07:30:06;;;;;;;;;10.00;8.00;;;;;23.56;53.53;98188.94;4890487;28;104172;-83
2021/07/25 07:32:33;;;;;;;;;9.00;9.00;;;;;23.55;53.47;98187.28;4880668;28;102227;-83
2021/07/25 07:35:00;;;;;;;;;6.00;5.00;;;;;23.56;53.36;98189.78;4872380;28;104610;-84
2021/07/25 07:37:28;;;;;;;;;10.00;8.00;;;;;23.57;53.53;98193.34;4898769;28;103789;-84
2021/07/25 07:39:56;;;;;;;;;8.33;8.33;;;;;23.59;53.34;98193.91;4883323;28;103068;-83
2021/07/25 07:42:23;;;;;;;;;7.67;7.67;;;;;23.61;53.51;98193.59;4890435;28;102400;-83
2021/07/25 07:44:51;;;;;;;;;8.00;8.00;;;;;23.60;53.48;98195.53;4886884;28;102401;-83
2021/07/25 07:47:18;;;;;;;;;10.33;9.00;;;;;23.62;53.70;98192.47;4885085;28;102603;-83
2021/07/25 07:49:46;;;;;;;;;10.67;9.33;;;;;23.61;53.52;98197.16;4890854;28;104064;-83
2021/07/25 07:52:13;;;;;;;;;11.00;9.67;;;;;23.62;53.65;98196.06;4879698;28;102561;-83
2021/07/25 07:54:40;;;;;;;;;8.00;8.00;;;;;23.63;53.96;98188.59;4875596;28;102294;-83
2021/07/25 07:57:08;;;;;;;;;9.67;9.33;;;;;23.65;53.70;98194.63;4895415;28;103971;-83
2021/07/25 07:59:35;;;;;;;;;11.00;10.00;;;;;23.64;53.65;98191.03;4884103;28;104494;-83
2021/07/25 08:02:02;;;;;;;;;9.00;9.00;;;;;23.63;53.57;98194.13;4891873;28;104827;-83
2021/07/25 08:04:30;;;;;;;;;9.00;8.00;;;;;23.66;53.65;98197.09;4883862;28;102956;-82
2021/07/25 08:06:57;;;;;;;;;7.67;7.67;;;;;23.67;53.73;98195.16;4886376;28;103618;-83
2021/07/25 08:09:25;;;;;;;;;8.00;8.00;;;;;23.67;53.70;98196.00;4878873;28;104343;-83
2021/07/25 08:11:52;;;;;;;;;9.33;8.67;;;;;23.69;53.52;98193.75;4874152;28;102204;-84
2021/07/25 08:14:19;;;;;;;;;9.00;9.00;;;;;23.70;53.54;98200.91;4866983;28;102472;-84
2021/07/25 08:16:47;;;;;;;;;9.33;8.00;;;;;23.71;53.53;98197.03;4888085;28;102488;-84
2021/07/25 08:19:15;;;;;;;;;9.67;9.00;;;;;23.71;53.50;98202.56;4873870;28;105342;-85
2021/07/25 08:21:42;;;;;;;;;9.00;9.00;;;;;23.72;53.44;98204.22;4881974;28;102513;-86
2021/07/25 08:24:09;;;;;;;;;11.67;9.67;;;;;23.72;53.52;98201.47;4886612;28;102493;-85
2021/07/25 08:26:37;;;;;;;;;9.00;8.33;;;;;23.73;53.65;98211.34;4893652;28;103213;-85
2021/07/25 08:29:04;;;;;;;;;11.00;9.00;;;;;23.75;53.66;98202.78;4893042;28;114609;-85
2021/07/25 08:31:31;;;;;;;;;8.33;8.33;;;;;23.75;53.66;98209.13;4883846;28;102169;-85
2021/07/25 08:33:58;;;;;;;;;8.00;8.00;;;;;23.76;53.45;98205.28;4871759;28;102810;-85
2021/07/25 08:36:25;;;;;;;;;0.67;0.33;;;;;23.77;53.37;98209.69;4900251;28;103770;-85
2021/07/25 08:38:53;;;;;;;;;10.00;8.67;;;;;23.78;53.28;98208.53;4888859;28;104107;-85
2021/07/25 08:41:51;;;;;;;;;8.00;8.00;;;;;23.80;53.19;98209.06;4868403;28;105644;-85
2021/07/25 08:44:39;;;;;;;;;11.00;10.00;;;;;23.80;53.18;98217.34;4810509;28;102367;-85
2021/07/25 08:47:18;;;;;;;;;7.00;7.00;;;;;23.81;53.25;98219.00;4888717;28;102507;-85
2021/07/25 08:49:57;;;;;;;;;12.00;9.33;;;;;23.83;53.45;98221.47;4828263;28;108805;-85
2021/07/25 08:52:26;;;;;;;;;9.33;9.00;;;;;23.84;53.26;98217.59;4885893;28;103634;-85
2021/07/25 08:54:53;;;;;;;;;9.33;7.67;;;;;23.85;53.31;98216.47;4898346;28;102550;-84
2021/07/25 08:57:26;;;;;;;;;8.33;8.00;;;;;23.85;53.31;98225.59;4884956;28;104789;-84
2021/07/25 08:59:54;;;;;;;;;9.33;9.00;;;;;23.86;53.45;98223.66;4891239;28;104351;-85
2021/07/25 09:02:28;;;;;;;;;8.67;8.67;;;;;23.86;54.05;98221.72;4890108;28;102305;-85
2021/07/25 09:04:58;;;;;;;;;7.00;7.00;;;;;23.84;54.27;98223.94;4885320;28;102681;-84
2021/07/25 09:07:27;;;;;;;;;9.00;8.50;;;;;23.87;53.84;98225.25;4889460;28;103123;-87
2021/07/25 09:09:56;;;;;;;;;7.67;7.67;;;;;23.87;53.79;98226.09;4898159;28;104085;-88
2021/07/25 09:12:25;;;;;;;;;9.67;9.67;;;;;23.89;54.34;98236.84;4876028;28;102474;-88
2021/07/25 09:15:33;;;;;;;;;10.00;9.67;;;;;23.88;54.20;98236.03;4883057;28;102181;-88
2021/07/25 09:18:01;;;;;;;;;11.00;7.67;;;;;23.89;54.64;98236.84;4827512;28;103876;-88
2021/07/25 09:20:40;;;;;;;;;10.00;9.00;;;;;23.89;54.76;98240.44;4885699;28;104201;-88
2021/07/25 09:23:11;;;;;;;;;10.00;9.67;;;;;23.90;54.99;98242.09;4886428;28;102386;-88
2021/07/25 09:25:44;;;;;;;;;9.67;9.00;;;;;23.89;54.96;98245.97;4900848;28;102105;-88
2021/07/25 09:28:13;;;;;;;;;11.67;10.00;;;;;23.90;54.99;98244.84;4884308;28;103340;-85
2021/07/25 09:30:41;;;;;;;;;9.33;9.33;;;;;23.90;55.04;98247.63;4895630;28;104995;-86
2021/07/25 09:33:21;;;;;;;;;10.33;10.33;;;;;23.93;55.15;98235.13;4910757;28;103533;-88
2021/07/25 09:35:49;;;;;;;;;8.33;7.33;;;;;23.92;55.13;98242.59;4826943;28;102839;-88
2021/07/25 09:38:19;;;;;;;;;10.00;9.33;;;;;23.91;55.39;98238.19;4893802;28;102247;-88
2021/07/25 09:40:47;;;;;;;;;7.67;7.00;;;;;23.92;55.14;98250.88;4907748;28;104299;-88
2021/07/25 09:43:19;;;;;;;;;8.00;6.67;;;;;23.94;55.31;98242.31;4889204;28;102388;-87
2021/07/25 09:45:50;;;;;;;;;10.33;9.00;;;;;23.93;55.05;98247.00;4884515;28;102806;-87
2021/07/25 09:48:18;;;;;;;;;9.67;9.67;;;;;23.94;55.34;98234.84;4909875;28;102229;-88
2021/07/25 09:50:46;;;;;;;;;6.00;6.00;;;;;23.94;55.20;98243.13;4889210;28;104569;-87
2021/07/25 09:53:13;;;;;;;;;10.67;9.33;;;;;23.94;55.16;98239.56;4885706;28;102126;-88
2021/07/25 09:55:41;;;;;;;;;6.00;5.67;;;;;23.95;55.21;98242.03;4914913;28;102595;-85
2021/07/25 09:58:08;;;;;;;;;10.67;9.67;;;;;23.94;55.45;98245.91;4891761;28;102520;-88
2021/07/25 10:00:41;;;;;;;;;10.00;8.00;;;;;23.95;55.29;98249.50;4887188;28;104317;-88
2021/07/25 10:03:18;;;;;;;;;11.00;10.00;;;;;23.95;55.26;98257.78;4902048;28;102530;-88
2021/07/25 10:05:45;;;;;;;;;10.00;10.00;;;;;23.95;55.49;98261.34;4884774;28;105608;-88
2021/07/25 10:08:17;;;;;;;;;7.00;7.00;;;;;23.95;55.67;98253.06;4907644;28;102574;-88
2021/07/25 10:10:51;;;;;;;;;8.00;8.00;;;;;23.95;55.66;98258.59;4901982;28;104308;-88
2021/07/25 10:13:23;;;;;;;;;8.67;8.00;;;;;23.95;55.49;98266.88;4896709;28;104389;-88
2021/07/25 10:15:55;;;;;;;;;7.00;7.00;;;;;23.94;55.81;98267.16;4904915;28;102693;-88
2021/07/25 10:18:22;;;;;;;;;9.33;8.00;;;;;23.93;55.88;98269.09;4909378;28;102495;-88
2021/07/25 10:20:53;;;;;;;;;9.00;9.00;;;;;23.94;55.70;98279.03;4877804;28;104104;-87
2021/07/25 10:23:21;;;;;;;;;8.67;7.33;;;;;23.95;55.97;98280.69;4880452;28;103140;-88
2021/07/25 10:25:50;;;;;;;;;7.00;7.00;;;;;23.94;56.01;98284.56;4877797;28;102390;-87
2021/07/25 10:28:18;;;;;;;;;9.00;8.00;;;;;23.94;55.95;98279.03;4890043;28;103462;-88
2021/07/25 10:30:47;;;;;;;;;8.00;8.00;;;;;23.94;56.06;98279.03;4868060;28;103532;-88
2021/07/25 10:33:16;;;;;;;;;9.33;9.33;;;;;23.95;55.92;98285.38;4887138;28;102654;-87
2021/07/25 10:35:44;;;;;;;;;7.67;7.33;;;;;23.94;55.94;98290.09;4882475;28;102562;-87
2021/07/25 10:38:11;;;;;;;;;10.33;8.33;;;;;23.93;56.28;98282.91;4889659;28;103751;-85
2021/07/25 10:40:38;;;;;;;;;9.00;9.00;;;;;23.94;56.12;98281.81;4888954;28;109087;-87
2021/07/25 10:43:07;;;;;;;;;9.67;9.33;;;;;23.94;56.17;98279.03;4851921;28;104752;-87
2021/07/25 10:45:35;;;;;;;;;9.00;9.00;;;;;23.95;56.33;98280.69;4896489;28;102060;-86
2021/07/25 10:48:18;;;;;;;;;10.33;8.00;;;;;23.94;56.42;98279.03;4893755;28;102566;-84
2021/07/25 10:50:45;;;;;;;;;11.67;11.00;;;;;23.90;56.08;98283.50;4879157;28;108742;-88
2021/07/25 10:53:22;;;;;;;;;10.67;10.67;;;;;23.94;55.47;98290.09;4894330;28;105437;-87
2021/07/25 10:55:49;;;;;;;;;11.00;11.00;;;;;23.97;55.36;98283.97;4861211;28;102648;-93
2021/07/25 10:58:21;;;;;;;;;11.33;11.33;;;;;23.98;56.08;98282.03;4886642;28;102743;-94
2021/07/25 11:00:52;;;;;;;;;12.33;11.00;;;;;24.00;56.52;98288.09;4903005;28;104095;-93
2021/07/25 11:03:25;;;;;;;;;10.00;10.00;;;;;24.03;57.14;98287.50;4869485;28;102858;-88
2021/07/25 11:06:02;;;;;;;;;11.67;11.00;;;;;24.15;56.35;98289.81;4902180;28;102488;-93
2021/07/25 11:08:44;;;;;;;;;14.00;14.00;;;;;24.24;55.72;98283.38;4889076;28;102810;-93
2021/07/25 11:11:34;;;;;;;;;10.33;10.33;;;;;24.32;55.10;98284.63;4866021;28;109381;-91
2021/07/25 11:14:06;;;;;;;;;16.33;14.67;;;;;24.39;55.57;98290.63;4826087;28;102331;-96
2021/07/25 11:16:40;;;;;;;;;14.00;12.33;;;;;24.39;55.20;98291.44;4891208;28;103748;-96
2021/07/25 11:19:13;;;;;;;;;10.67;8.33;;;;;24.40;54.72;98292.28;4888501;28;102658;-96
2021/07/25 11:21:43;;;;;;;;;10.67;10.33;;;;;24.39;54.80;98291.44;4894338;28;104182;-96
2021/07/25 11:24:34;;;;;;;;;11.00;10.67;;;;;24.36;54.98;98291.22;4902905;28;102342;-96
2021/07/25 11:27:05;;;;;;;;;9.33;9.00;;;;;24.35;54.93;98295.94;4827479;28;102977;-96
2021/07/25 11:29:32;;;;;;;;;12.67;11.00;;;;;24.35;54.41;98295.09;4860550;28;103148;-96
2021/07/25 11:32:00;;;;;;;;;10.00;10.00;;;;;24.36;53.42;98302.28;4893090;28;104030;-96
2021/07/25 11:34:33;;;;;;;;;11.67;11.67;;;;;24.35;53.30;98295.09;4885511;28;104925;-96